Bookmark and Share
Track history (hours):
 

Drifting buoy 51940

Last reported at 2014-Apr-16 13:25 UTC. Time now 2014-Apr-16 16:02 UTC.
Position N 31°08' E 171°54'.

Water temperature 16.9 ° C

NotesDate/timePositionNaut miles runAvg speedWind from/ knotsBaromVisibWave heightAir tempDewpointWater temp
2014-Apr-16 13:25N 31°08' E 171°54'1 0.3 16.9
2014-Apr-16 09:39N 31°07' E 171°55'0 0.3 16.9
2014-Apr-16 07:58N 31°07' E 171°54'1 0.7 16.9
2014-Apr-16 06:22N 31°06' E 171°54'0 0.0 16.9
2014-Apr-16 04:47N 31°06' E 171°54'113.3 17.0
2014-Apr-16 04:41N 31°04' E 171°53'0 0.0 17.0
2014-Apr-16 03:55N 31°04' E 171°53'0 0.2 17.0
2014-Apr-16 02:36N 31°04' E 171°54'3 2.1 17.1
2014-Apr-16 00:55N 31°01' E 171°51'3 1.1 17.1
2014-Apr-15 22:38N 30°60' E 171°54'0 0.0 17.1
2014-Apr-15 20:55N 30°60' E 171°54'0 0.0 17.1
2014-Apr-15 19:12N 30°60' E 171°54'2 2.0 17.1
2014-Apr-15 18:18N 30°60' E 171°56'0 0.0 17.1
2014-Apr-15 17:30N 30°60' E 171°56'0 0.0 17.0
2014-Apr-15 16:41N 30°60' E 171°56'1 7.3
2014-Apr-15 16:31N 30°60' E 171°54'0 0.0 17.0
2014-Apr-15 15:20N 30°60' E 171°54'2 1.1 17.0
2014-Apr-15 13:37N 30°60' E 171°57'2 0.6 17.0
2014-Apr-15 10:06N 30°60' E 171°59'0 2.7 17.0
2014-Apr-15 09:59N 31°00' E 171°60'0 0.4 17.0
2014-Apr-15 09:15N 30°60' E 171°59'1 6.2 17.0
2014-Apr-15 09:10N 31°00' E 171°60'3 4.3 17.0
2014-Apr-15 08:30N 31°00' E 172°03'0 0.0 17.1
2014-Apr-15 08:19N 31°00' E 172°03'2 1.3 17.1
2014-Apr-15 07:11N 30°60' E 172°01'2 0.9 17.1
2014-Apr-15 05:27N 31°00' E 172°03'0 0.0 17.2
2014-Apr-15 02:52N 31°00' E 172°03'0 0.0 17.3
2014-Apr-15 02:47N 31°00' E 172°03'1 0.4 17.3
2014-Apr-15 01:06N 31°01' E 172°03'1 0.6 17.1
2014-Apr-14 22:52N 30°60' E 172°05'1 0.8 17.1
2014-Apr-14 21:59N 30°59' E 172°04'0 0.5 17.1
2014-Apr-14 21:00N 30°59' E 172°05'1 0.5 17.0
2014-Apr-14 18:52N 30°59' E 172°06'0 0.4 17.0
2014-Apr-14 17:50N 30°59' E 172°06'0 0.0
2014-Apr-14 17:14N 30°59' E 172°06'1 0.7 17.0
2014-Apr-14 16:17N 30°60' E 172°07'0 0.0 17.0
2014-Apr-14 13:50N 30°60' E 172°07'0 0.1 17.0
2014-Apr-14 10:17N 30°60' E 172°07'1 0.6 17.0
2014-Apr-14 08:36N 31°01' E 172°06'2 0.5 17.0
2014-Apr-14 03:58N 30°59' E 172°04'0 0.4 17.2
2014-Apr-14 02:57N 30°59' E 172°04'0 0.0 17.2
2014-Apr-14 01:20N 30°59' E 172°04'0 0.1 17.2
2014-Apr-13 23:02N 30°59' E 172°04'4 0.3 17.1
2014-Apr-13 10:33N 31°02' E 172°02'0 0.6 17.6
2014-Apr-13 09:51N 31°03' E 172°01'0 0.0 17.6
2014-Apr-13 09:00N 31°03' E 172°01'0 2.0 17.6
2014-Apr-13 08:52N 31°03' E 172°02'0 0.1 17.6
2014-Apr-13 04:20N 31°03' E 172°01'1 1.1 17.7
2014-Apr-13 03:10N 31°02' E 172°03'1 2.3 18.1
2014-Apr-13 02:54N 31°03' E 172°02'0 6.3 18.0
2014-Apr-13 02:51N 31°02' E 172°02'0 0.2 18.0
2014-Apr-13 01:31N 31°03' E 172°02'2 0.3 17.7
2014-Apr-12 18:17N 31°03' E 172°04'0 0.3 17.2
2014-Apr-12 17:15N 31°04' E 172°05'1 7.6 17.3
2014-Apr-12 17:08N 31°04' E 172°04'0 0.3 17.3
2014-Apr-12 15:48N 31°03' E 172°03'0 0.0 17.3
2014-Apr-12 15:31N 31°03' E 172°03'1 0.4 17.3
2014-Apr-12 14:11N 31°04' E 172°03'1 7.6 17.4
2014-Apr-12 14:00N 31°04' E 172°01'0 0.0 17.4
2014-Apr-12 11:00N 31°04' E 172°01'0 0.0 17.4
2014-Apr-12 10:46N 31°04' E 172°01'1 1.7 17.4
2014-Apr-12 10:12N 31°03' E 172°00'0 0.3 17.4
2014-Apr-12 09:19N 31°03' E 172°00'010.7 17.5
2014-Apr-12 09:17N 31°03' E 172°00'1 3.7 17.5
2014-Apr-12 09:08N 31°03' E 171°60'114.2 17.5
2014-Apr-12 09:03N 31°02' E 171°60'2 0.7 17.5
2014-Apr-12 06:24N 31°00' E 171°58'0 0.0 17.5
2014-Apr-12 05:20N 31°00' E 171°58'0 0.0 17.5
2014-Apr-12 04:46N 31°00' E 171°58'0 1.2 17.6
2014-Apr-12 04:41N 31°00' E 171°58'2 1.1 17.6
2014-Apr-12 03:03N 30°58' E 171°58'1 0.8 17.6
2014-Apr-12 01:38N 30°59' E 171°59'2 1.0 17.6
2014-Apr-11 23:25N 30°57' E 171°58'0 0.0 17.6
2014-Apr-11 22:56N 30°57' E 171°58'0 0.3 17.6
2014-Apr-11 22:04N 30°57' E 171°57'0 3.6 17.5
2014-Apr-11 22:00N 30°57' E 171°58'1 0.4 17.5
2014-Apr-11 18:49N 30°56' E 171°58'1 0.7 17.5
2014-Apr-11 17:26N 30°55' E 171°57'0 1.4 17.5
2014-Apr-11 17:10N 30°55' E 171°57'2 1.7 17.5
2014-Apr-11 16:02N 30°53' E 171°57'0 0.0 17.5
2014-Apr-11 14:20N 30°53' E 171°57'3 1.0 17.5
2014-Apr-11 10:57N 30°50' E 171°59'0 0.0 17.6
2014-Apr-11 09:42N 30°50' E 171°59'0 1.0 17.6
2014-Apr-11 09:15N 30°50' E 171°60'0 0.0 17.6
2014-Apr-11 08:57N 30°50' E 171°60'1 1.4
2014-Apr-11 08:00N 30°49' E 172°00'0 0.0 17.6
2014-Apr-11 05:57N 30°49' E 172°00'0 0.4 17.6
2014-Apr-11 05:13N 30°48' E 172°00'1 1.9 17.6
2014-Apr-11 04:52N 30°48' E 172°01'1 0.5 17.6
2014-Apr-11 03:28N 30°48' E 172°01'1 4.3 17.7
2014-Apr-11 03:17N 30°47' E 172°00'0 0.0 17.7
2014-Apr-11 01:54N 30°47' E 172°00'113.7 17.7
2014-Apr-11 01:48N 30°47' E 172°02'0 0.0 17.7
2014-Apr-10 21:57N 30°47' E 172°02'0 5.9 17.6
2014-Apr-10 21:52N 30°46' E 172°02'0 0.0 17.6
2014-Apr-10 19:19N 30°46' E 172°02'0 0.1 17.6
2014-Apr-10 17:39N 30°46' E 172°02'0 8.1 17.6
2014-Apr-10 17:36N 30°47' E 172°03'1 0.2 17.6
2014-Apr-10 10:03N 30°47' E 172°04'0 0.0 17.7
2014-Apr-10 09:33N 30°47' E 172°04'325.7 17.7
2014-Apr-10 09:27N 30°49' E 172°06'215.7 17.7
2014-Apr-10 09:18N 30°47' E 172°05'0 7.0 17.7
2014-Apr-10 09:14N 30°47' E 172°05'2 2.2 17.7
2014-Apr-10 08:20N 30°49' E 172°06'3 0.8 17.8
2014-Apr-10 05:01N 30°52' E 172°05'0 0.0 17.9
2014-Apr-10 03:27N 30°52' E 172°05'4 2.7 17.9
2014-Apr-10 02:05N 30°54' E 172°01'0 0.0 17.8
2014-Apr-10 00:24N 30°54' E 172°01'0 0.0 17.7
2014-Apr-09 22:47N 30°54' E 172°01'2 2.8 17.6
2014-Apr-09 22:02N 30°53' E 171°59'0 0.0 17.6
2014-Apr-09 21:59N 30°53' E 171°59'0 0.0 17.6
2014-Apr-09 18:10N 30°53' E 171°59'0 0.7 17.5
2014-Apr-09 17:49N 30°53' E 171°58'1 0.5 17.5
2014-Apr-09 16:41N 30°53' E 171°58'0 0.0 17.6
2014-Apr-09 16:22N 30°53' E 171°58'0 0.0 17.6
2014-Apr-09 16:07N 30°53' E 171°58'4 0.4 17.6
2014-Apr-09 05:17N 30°57' E 171°54'0 0.1 17.8
2014-Apr-09 04:15N 30°57' E 171°55'1 2.3 17.8
2014-Apr-09 03:39N 30°57' E 171°53'0 0.0 17.8
2014-Apr-09 02:13N 30°57' E 171°53'4 2.3 17.7
2014-Apr-09 00:33N 30°58' E 171°49'0 0.0 17.7
2014-Apr-08 23:00N 30°58' E 171°49'0 0.5 17.6
2014-Apr-08 22:26N 30°58' E 171°49'0 0.2 17.5
2014-Apr-08 21:27N 30°57' E 171°49'1 0.3 17.5
2014-Apr-08 17:57N 30°57' E 171°48'0 0.0 17.5
2014-Apr-08 17:06N 30°57' E 171°48'0 0.0 17.5
2014-Apr-08 14:55N 30°57' E 171°48'2 1.1 17.5
2014-Apr-08 13:07N 30°59' E 171°49'0 0.1
2014-Apr-08 09:59N 30°59' E 171°49'1 0.7 17.5
2014-Apr-08 09:03N 30°60' E 171°49'3 3.9 17.5
2014-Apr-08 08:14N 31°03' E 171°49'1 0.4 17.5
2014-Apr-08 06:19N 31°04' E 171°49'0 0.0 17.5
2014-Apr-08 04:45N 31°04' E 171°49'2 1.7 17.5
2014-Apr-08 03:46N 31°04' E 171°47'0 0.0 17.5
2014-Apr-08 02:27N 31°04' E 171°47'1 0.9 17.5
2014-Apr-08 00:45N 31°04' E 171°46'014.4
2014-Apr-08 00:44N 31°04' E 171°46'1 0.5 17.5
2014-Apr-07 22:38N 31°03' E 171°45'319.5 17.5
2014-Apr-07 22:28N 31°00' E 171°43'0 0.0 17.5
2014-Apr-07 20:52N 31°00' E 171°43'1 0.4 17.6
2014-Apr-07 19:08N 30°60' E 171°44'0 0.0 17.5
2014-Apr-07 18:08N 30°60' E 171°44'0 0.0 17.5
2014-Apr-07 17:36N 30°60' E 171°44'1 7.2 17.5
2014-Apr-07 17:27N 30°59' E 171°44'0 0.2 17.5
2014-Apr-07 15:07N 30°59' E 171°43'1 0.6 17.5
2014-Apr-07 13:24N 30°58' E 171°43'1 0.4 17.5
2014-Apr-07 10:05N 30°57' E 171°42'0 0.5 17.4
2014-Apr-07 09:24N 30°56' E 171°42'1 1.5 17.4
2014-Apr-07 08:26N 30°55' E 171°41'1 3.2 17.4
2014-Apr-07 08:03N 30°56' E 171°43'3 0.7 17.4
2014-Apr-07 04:01N 30°54' E 171°40'1 0.5 17.5
2014-Apr-07 02:38N 30°54' E 171°40'122.3 17.4
2014-Apr-07 02:34N 30°53' E 171°39'2 1.5 17.4
2014-Apr-07 00:57N 30°51' E 171°37'1 1.2 17.4
2014-Apr-06 23:47N 30°52' E 171°38'2 2.1 17.3
2014-Apr-06 22:49N 30°50' E 171°36'0 0.0 17.3
2014-Apr-06 21:06N 30°50' E 171°36'5 1.7 17.3
2014-Apr-06 18:19N 30°47' E 171°33'211.3 17.3
2014-Apr-06 18:07N 30°48' E 171°35'8 5.0 17.3
2014-Apr-06 16:31N 30°44' E 171°27'0 0.0 17.4
2014-Apr-06 15:17N 30°44' E 171°27'0 0.0 17.5
2014-Apr-06 13:35N 30°44' E 171°27'   17.6

Dump ship's entire track history

sailing weather and tide predictions

Buoy 51940